Time;durP1;ratioP1;P1;durP2;ratioP2;P2;SDS_P1;SDS_P2;PMS_P1;PMS_P2;Temp;Humidity;BMP_temperature;BMP_pressure;BME280_temperature;BME280_humidity;BME280_pressure;Samples;Min_cycle;Max_cycle;Signal;HPM_P1;HPM_P2
2022/06/28 00:01:33;;;;;;;5.30;4.10;;;;;;;25.62;51.88;101327.31;5008618;28;99169;-74
2022/06/28 00:04:01;;;;;;;4.43;3.85;;;;;;;26.30;50.55;101315.69;5008656;28;96832;-75
2022/06/28 00:06:27;;;;;;;4.78;4.03;;;;;;;26.44;50.36;101312.53;5004313;28;96740;-74
2022/06/28 00:08:53;;;;;;;4.82;4.40;;;;;;;26.32;50.79;101312.84;5006459;28;99922;-76
2022/06/28 00:11:20;;;;;;;6.70;4.70;;;;;;;26.36;50.69;101308.81;5002595;28;98552;-75
2022/06/28 00:13:46;;;;;;;5.72;5.13;;;;;;;26.04;52.62;101328.03;5006361;28;96822;-75
2022/06/28 00:16:16;;;;;;;7.45;5.10;;;;;;;26.09;52.75;101325.75;5004632;28;96993;-75
2022/06/28 00:18:44;;;;;;;5.90;5.30;;;;;;;25.95;53.56;101327.00;5005809;28;98953;-75
2022/06/28 00:21:12;;;;;;;6.82;5.35;;;;;;;25.99;54.04;101317.59;5007630;28;99358;-74
2022/06/28 00:23:42;;;;;;;7.88;5.80;;;;;;;25.41;56.83;101324.66;5000423;28;97239;-74
2022/06/28 00:26:11;;;;;;;6.15;5.55;;;;;;;25.39;57.38;101318.53;5005479;28;97053;-74
2022/06/28 00:28:37;;;;;;;7.22;6.25;;;;;;;25.16;58.20;101323.25;5001387;28;98919;-74
2022/06/28 00:31:04;;;;;;;8.20;5.97;;;;;;;25.27;58.01;101323.16;5004856;28;98759;-73
2022/06/28 00:33:30;;;;;;;9.93;6.65;;;;;;;25.47;58.33;101323.28;5010961;28;96796;-73
2022/06/28 00:35:57;;;;;;;7.18;6.35;;;;;;;25.66;56.88;101332.34;5007330;28;97556;-74
2022/06/28 00:38:25;;;;;;;7.40;6.70;;;;;;;25.52;57.69;101329.97;5005887;28;98572;-75
2022/06/28 00:40:53;;;;;;;7.05;6.45;;;;;;;25.53;57.75;101341.66;5006791;28;98806;-75
2022/06/28 00:43:22;;;;;;;7.72;6.85;;;;;;;25.44;58.63;101342.47;4998151;28;98134;-74
2022/06/28 00:45:49;;;;;;;7.55;6.55;;;;;;;25.55;57.33;101332.41;5002269;28;96889;-74
2022/06/28 00:48:18;;;;;;;7.57;6.88;;;;;;;25.45;58.03;101338.78;5004248;28;99401;-74
2022/06/28 00:50:44;;;;;;;7.80;7.05;;;;;;;25.26;58.54;101350.38;5005736;28;99282;-74
2022/06/28 00:53:13;;;;;;;8.85;6.68;;;;;;;25.28;58.00;101348.34;5003411;28;97364;-74
2022/06/28 00:55:41;;;;;;;10.25;7.30;;;;;;;25.50;57.94;101361.72;5009145;28;97512;-74
2022/06/28 00:58:09;;;;;;;8.30;7.60;;;;;;;25.22;57.95;101365.97;4994116;28;98974;-75
2022/06/28 01:00:37;;;;;;;8.05;7.22;;;;;;;24.95;58.84;101374.63;5006720;28;98841;-74
2022/06/28 01:03:05;;;;;;;10.40;7.60;;;;;;;25.11;58.49;101367.91;5006467;28;96818;-74
2022/06/28 01:05:32;;;;;;;8.68;7.78;;;;;;;25.19;57.66;101360.00;5007582;28;96755;-74
2022/06/28 01:07:59;;;;;;;7.53;6.75;;;;;;;24.80;58.08;101369.66;5001471;28;99256;-74
2022/06/28 01:10:26;;;;;;;7.05;6.45;;;;;;;24.95;58.00;101357.56;5005860;28;99778;-74
2022/06/28 01:12:53;;;;;;;8.48;7.03;;;;;;;25.15;56.97;101345.88;5006309;28;96761;-74
2022/06/28 01:15:20;;;;;;;7.38;6.68;;;;;;;25.54;56.61;101343.34;5010019;28;97444;-73
2022/06/28 01:17:46;;;;;;;7.93;6.90;;;;;;;25.58;55.39;101353.81;5000113;28;98934;-72
2022/06/28 01:20:13;;;;;;;8.32;7.10;;;;;;;25.39;55.95;101349.16;5003965;28;98771;-74
2022/06/28 01:22:41;;;;;;;6.97;6.28;;;;;;;25.38;56.14;101360.09;5004680;28;96758;-74
2022/06/28 01:25:09;;;;;;;7.80;6.90;;;;;;;25.46;55.74;101367.53;5004175;28;96974;-74
2022/06/28 01:27:37;;;;;;;7.63;6.95;;;;;;;24.94;57.13;101372.09;5003604;28;98925;-74
2022/06/28 01:30:04;;;;;;;7.72;6.93;;;;;;;24.71;58.02;101387.50;5008166;28;97533;-74
2022/06/28 01:32:31;;;;;;;8.20;7.50;;;;;;;24.42;59.02;101402.59;5004835;28;97621;-74
2022/06/28 01:34:57;;;;;;;8.43;7.68;;;;;;;24.52;59.05;101411.66;5009131;28;96829;-73
2022/06/28 01:37:24;;;;;;;9.35;8.20;;;;;;;24.31;59.90;101405.34;5006500;28;99001;-73
2022/06/28 01:39:52;;;;;;;8.35;7.15;;;;;;;24.37;60.48;101404.81;5003697;28;98960;-73
2022/06/28 01:42:18;;;;;;;10.00;8.43;;;;;;;24.30;60.28;101409.03;5004106;28;96834;-73
2022/06/28 01:44:46;;;;;;;8.10;7.40;;;;;;;24.36;61.45;101420.19;5002925;28;97017;-73
2022/06/28 01:47:13;;;;;;;9.23;7.25;;;;;;;24.45;60.64;101419.44;5006568;28;99240;-74
2022/06/28 01:49:40;;;;;;;8.15;7.35;;;;;;;24.47;61.06;101430.09;5007657;28;98873;-73
2022/06/28 01:52:07;;;;;;;7.88;7.18;;;;;;;24.40;60.69;101437.88;5009805;28;97216;-73
2022/06/28 01:54:34;;;;;;;7.85;7.15;;;;;;;24.13;61.19;101407.69;5010378;28;97059;-74
2022/06/28 01:57:02;;;;;;;8.23;7.50;;;;;;;24.18;61.19;101400.06;5011580;28;99384;-70
2022/06/28 01:59:29;;;;;;;8.73;7.82;;;;;;;23.74;62.59;101385.66;5009601;28;102702;-70
2022/06/28 02:01:56;;;;;;;8.25;7.50;;;;;;;24.12;61.25;101387.94;5004996;28;97703;-71
2022/06/28 02:04:23;;;;;;;8.63;7.72;;;;;;;24.23;60.57;101398.72;5008343;28;96948;-71
2022/06/28 02:06:50;;;;;;;9.65;7.88;;;;;;;24.15;60.33;101414.69;5004483;28;99329;-71
2022/06/28 02:09:16;;;;;;;9.27;7.60;;;;;;;24.44;60.06;101433.91;5010691;28;99082;-70
2022/06/28 02:11:43;;;;;;;8.32;7.40;;;;;;;24.87;58.92;101436.59;5010267;28;98533;-70
2022/06/28 02:14:11;;;;;;;8.32;7.43;;;;;;;24.92;58.62;101439.78;5009496;28;98800;-70
2022/06/28 02:16:38;;;;;;;9.23;8.15;;;;;;;24.71;58.77;101446.97;5007130;28;98928;-71
2022/06/28 02:19:05;;;;;;;10.02;7.53;;;;;;;24.85;58.46;101435.00;5007194;28;98959;-70
2022/06/28 02:21:36;;;;;;;8.07;7.32;;;;;;;24.52;59.60;101435.97;5009672;28;97093;-71
2022/06/28 02:24:03;;;;;;;7.38;6.68;;;;;;;24.95;58.44;101450.34;5004238;28;97248;-69
2022/06/28 02:26:31;;;;;;;9.73;7.10;;;;;;;25.29;57.88;101463.69;5005995;28;99030;-71
2022/06/28 02:28:58;;;;;;;7.60;6.90;;;;;;;25.25;57.06;101471.22;5001299;28;98890;-71
2022/06/28 02:31:26;;;;;;;9.60;6.90;;;;;;;25.36;56.75;101472.97;5010326;28;97396;-71
2022/06/28 02:33:53;;;;;;;8.65;6.68;;;;;;;25.09;57.08;101475.34;5012994;28;96889;-71
2022/06/28 02:41:48;;;;;;;6.90;6.20;;;;;;;24.62;57.96;101501.75;5006254;28;97307;-71
2022/06/28 02:44:15;;;;;;;7.28;6.57;;;;;;;24.58;58.03;101497.63;5010269;28;96939;-71
2022/06/28 02:46:43;;;;;;;6.38;5.75;;;;;;;24.89;57.38;101509.44;5003786;28;98959;-71
2022/06/28 02:49:10;;;;;;;8.60;6.93;;;;;;;24.72;57.33;101520.78;5008931;28;98896;-71
2022/06/28 02:51:36;;;;;;;6.88;6.18;;;;;;;24.99;56.80;101519.41;5008061;28;97097;-71
2022/06/28 02:54:02;;;;;;;9.10;5.88;;;;;;;24.92;57.04;101528.16;5008198;28;96784;-70
2022/06/28 02:56:29;;;;;;;7.55;6.85;;;;;;;25.22;56.95;101535.50;5007769;28;99203;-70
2022/06/28 02:58:55;;;;;;;6.85;6.18;;;;;;;24.95;56.32;101531.44;5010878;28;99460;-70
2022/06/28 03:01:22;;;;;;;7.25;5.68;;;;;;;24.53;56.89;101535.81;5009479;28;96947;-70
2022/06/28 03:03:49;;;;;;;7.20;6.00;;;;;;;24.58;56.75;101543.53;5006974;28;96897;-70
2022/06/28 03:06:16;;;;;;;6.50;5.88;;;;;;;24.76;56.05;101560.09;5006894;28;99591;-70
2022/06/28 03:08:42;;;;;;;6.00;5.40;;;;;;;24.51;56.10;101563.94;5008788;28;100704;-72
2022/06/28 03:11:08;;;;;;;5.95;5.32;;;;;;;24.90;54.95;101566.09;5006704;28;98312;-71
2022/06/28 03:13:35;;;;;;;6.13;4.90;;;;;;;24.61;55.64;101583.84;5006824;28;98545;-71
2022/06/28 03:16:01;;;;;;;6.50;5.35;;;;;;;24.55;56.63;101593.28;5011969;28;97151;-70
2022/06/28 03:18:27;;;;;;;5.30;4.80;;;;;;;24.45;56.30;101597.72;5005293;28;98780;-70
2022/06/28 03:20:55;;;;;;;5.00;4.60;;;;;;;24.24;56.56;101604.81;5008093;28;96817;-71
2022/06/28 03:23:22;;;;;;;5.53;4.68;;;;;;;23.90;57.06;101606.56;5006264;28;97140;-70
2022/06/28 03:25:54;;;;;;;5.30;4.80;;;;;;;24.09;56.44;101611.41;5008429;28;98925;-70
2022/06/28 03:28:20;;;;;;;4.32;3.92;;;;;;;24.09;56.46;101612.25;5003069;28;100185;-71
2022/06/28 03:30:47;;;;;;;6.13;4.10;;;;;;;24.32;56.11;101620.41;5008298;28;96688;-70
2022/06/28 03:33:13;;;;;;;5.47;3.40;;;;;;;24.18;55.96;101621.47;5005887;28;96877;-71
2022/06/28 03:35:40;;;;;;;4.45;4.05;;;;;;;23.88;56.50;101621.19;5011577;28;99942;-70
2022/06/28 03:38:08;;;;;;;4.55;3.35;;;;;;;24.05;56.23;101626.97;5006546;28;99376;-69
2022/06/28 03:40:34;;;;;;;4.00;3.70;;;;;;;24.33;55.86;101619.44;5012314;28;97264;-70
2022/06/28 03:43:00;;;;;;;4.13;3.45;;;;;;;24.46;54.76;101621.06;5010959;28;96810;-69
2022/06/28 03:45:27;;;;;;;4.07;3.47;;;;;;;24.40;54.21;101626.09;5010608;28;99215;-70
2022/06/28 03:47:53;;;;;;;3.58;3.28;;;;;;;24.30;54.64;101634.03;5004135;28;99127;-70
2022/06/28 03:50:19;;;;;;;4.30;3.47;;;;;;;24.45;54.96;101631.97;5010860;28;97331;-70
2022/06/28 03:52:46;;;;;;;3.28;3.00;;;;;;;24.40;54.94;101637.75;5002612;28;98512;-70
2022/06/28 03:55:14;;;;;;;3.30;3.00;;;;;;;24.45;54.63;101626.56;5010940;28;99345;-70
2022/06/28 03:57:40;;;;;;;3.08;2.78;;;;;;;24.20;55.05;101631.22;5002320;28;97570;-70
2022/06/28 04:00:08;;;;;;;3.47;3.17;;;;;;;24.23;54.66;101627.41;5005764;28;97178;-70
2022/06/28 04:02:34;;;;;;;2.85;2.65;;;;;;;24.23;55.01;101620.16;5007543;28;96904;-70
2022/06/28 04:05:00;;;;;;;3.97;3.58;;;;;;;24.28;54.71;101611.72;5005890;28;99226;-71
2022/06/28 04:07:27;;;;;;;3.58;3.17;;;;;;;24.19;54.74;101607.91;5006038;28;99464;-70
2022/06/28 04:09:53;;;;;;;3.70;3.38;;;;;;;24.13;55.37;101608.34;5007757;28;97344;-70
2022/06/28 04:12:21;;;;;;;4.22;3.20;;;;;;;24.32;54.73;101607.78;5005805;28;96912;-71
2022/06/28 04:14:48;;;;;;;2.90;2.70;;;;;;;24.39;54.26;101602.75;5001602;28;99284;-70
2022/06/28 04:17:14;;;;;;;3.83;3.53;;;;;;;24.53;54.88;101606.06;5008495;28;98873;-70
2022/06/28 04:19:41;;;;;;;3.90;3.47;;;;;;;24.57;53.94;101596.72;5007938;28;97184;-70
2022/06/28 04:22:07;;;;;;;3.95;3.47;;;;;;;23.99;55.36;101595.06;5009716;28;96959;-70
2022/06/28 04:24:34;;;;;;;3.28;2.97;;;;;;;24.16;55.49;101591.03;5004415;28;99990;-72
2022/06/28 04:27:00;;;;;;;4.00;3.55;;;;;;;23.57;57.53;101601.06;5007163;28;98820;-70
2022/06/28 04:29:28;;;;;;;6.35;3.28;;;;;;;23.71;57.14;101593.66;5006603;28;97863;-70
2022/06/28 04:31:55;;;;;;;3.50;3.20;;;;;;;23.28;58.74;101592.47;5009872;28;97078;-70
2022/06/28 04:34:22;;;;;;;4.07;3.47;;;;;;;23.52;58.09;101589.78;5008051;28;99358;-71
2022/06/28 04:36:48;;;;;;;4.05;3.55;;;;;;;23.66;57.27;101571.56;5003901;28;98796;-70
2022/06/28 04:39:15;;;;;;;3.75;3.35;;;;;;;23.54;57.84;101574.34;5006917;28;97254;-70
2022/06/28 04:41:41;;;;;;;3.15;2.85;;;;;;;22.77;59.15;101567.59;5005662;28;96688;-71
2022/06/28 04:44:10;;;;;;;3.53;3.20;;;;;;;22.92;59.19;101586.16;5005720;28;98985;-71
2022/06/28 04:46:38;;;;;;;3.67;3.35;;;;;;;23.17;58.52;101571.69;5000507;28;98780;-71
2022/06/28 04:49:05;;;;;;;3.53;3.22;;;;;;;23.25;58.69;101580.09;5000900;28;96719;-71
2022/06/28 04:51:31;;;;;;;4.15;3.75;;;;;;;23.47;58.14;101586.56;5005427;28;98763;-71
2022/06/28 04:53:58;;;;;;;3.60;3.30;;;;;;;22.94;59.76;101577.97;5002372;28;98927;-70
2022/06/28 04:56:24;;;;;;;4.60;3.60;;;;;;;22.86;59.94;101570.44;5005039;28;99111;-70
2022/06/28 04:58:51;;;;;;;7.13;4.03;;;;;;;23.05;59.87;101567.22;5003872;28;96967;-70
2022/06/28 05:01:17;;;;;;;4.32;3.92;;;;;;;23.26;58.94;101571.03;5005170;28;98536;-71
2022/06/28 05:03:45;;;;;;;5.35;4.00;;;;;;;23.02;59.41;101564.78;5005420;28;99066;-71
2022/06/28 05:06:13;;;;;;;4.35;4.00;;;;;;;23.57;57.71;101568.69;5008901;28;98282;-70
2022/06/28 05:08:39;;;;;;;4.10;3.40;;;;;;;23.59;57.18;101569.44;5008094;28;97139;-70
2022/06/28 05:11:06;;;;;;;3.83;3.47;;;;;;;23.16;58.60;101566.44;5002523;28;97701;-70
2022/06/28 05:13:33;;;;;;;4.50;4.15;;;;;;;23.48;57.81;101578.38;5007841;28;100880;-70
2022/06/28 05:15:59;;;;;;;5.07;3.50;;;;;;;23.25;58.51;101581.91;5008364;28;98837;-72
2022/06/28 05:18:25;;;;;;;3.88;3.15;;;;;;;23.48;57.93;101580.22;5001915;28;97175;-70
2022/06/28 05:20:53;;;;;;;5.05;4.00;;;;;;;23.40;57.82;101576.22;5009397;28;96894;-70
2022/06/28 05:23:20;;;;;;;3.92;3.63;;;;;;;23.25;57.58;101576.53;5005320;28;99131;-70
2022/06/28 05:25:46;;;;;;;3.95;3.65;;;;;;;23.41;57.02;101577.09;5010606;28;101595;-70
2022/06/28 05:28:12;;;;;;;4.00;3.60;;;;;;;22.80;58.59;101570.03;5001017;28;97407;-70
2022/06/28 05:30:39;;;;;;;4.82;4.00;;;;;;;22.58;59.76;101576.94;5006182;28;98703;-70
2022/06/28 05:33:05;;;;;;;4.85;3.78;;;;;;;22.92;58.46;101585.28;5005401;28;99375;-70
2022/06/28 05:35:32;;;;;;;4.32;3.92;;;;;;;22.69;59.18;101581.56;5006884;28;98809;-71
2022/06/28 05:38:03;;;;;;;7.43;4.38;;;;;;;22.75;59.03;101586.53;5002304;28;96880;-70
2022/06/28 05:40:29;;;;;;;4.13;3.70;;;;;;;22.88;58.29;101579.28;5009150;28;97932;-70
2022/06/28 05:42:56;;;;;;;5.10;3.55;;;;;;;23.26;56.74;101583.63;5010685;28;98367;-70
2022/06/28 05:45:22;;;;;;;6.40;3.60;;;;;;;23.02;57.05;101584.50;5004642;28;99062;-70
2022/06/28 05:47:49;;;;;;;7.68;3.33;;;;;;;22.74;57.08;101590.22;5009974;28;97114;-72
2022/06/28 05:50:15;;;;;;;4.45;2.90;;;;;;;22.62;57.53;101581.16;5007446;28;97528;-71
2022/06/28 05:52:41;;;;;;;6.57;2.88;;;;;;;22.55;57.15;101585.28;5006805;28;102210;-70
2022/06/28 05:55:09;;;;;;;3.25;3.00;;;;;;;22.74;56.15;101594.72;5013551;28;98104;-70
2022/06/28 05:57:36;;;;;;;3.58;3.00;;;;;;;22.90;56.17;101590.81;5005357;28;98403;-71
2022/06/28 06:00:03;;;;;;;6.43;2.97;;;;;;;22.75;56.37;101589.25;5006642;28;97589;-70
2022/06/28 06:02:29;;;;;;;4.45;2.85;;;;;;;22.92;55.73;101590.69;5010342;28;98897;-71
2022/06/28 06:04:56;;;;;;;3.00;2.70;;;;;;;23.06;54.60;101595.91;5010754;28;99678;-71
2022/06/28 06:07:23;;;;;;;5.88;2.88;;;;;;;22.92;54.76;101594.25;5005113;28;100536;-71
2022/06/28 06:09:49;;;;;;;2.92;2.58;;;;;;;22.70;55.78;101595.91;5010057;28;96971;-72
2022/06/28 06:12:17;;;;;;;4.70;2.72;;;;;;;22.99;55.01;101594.66;5007955;28;100984;-70
2022/06/28 06:14:44;;;;;;;2.65;2.45;;;;;;;23.15;54.85;101594.38;5010267;28;102698;-69
2022/06/28 06:17:10;;;;;;;5.22;3.55;;;;;;;23.52;53.59;101589.78;5009914;28;97146;-71
2022/06/28 06:19:37;;;;;;;4.00;3.58;;;;;;;23.24;53.97;101597.22;5005033;28;98107;-72
2022/06/28 06:22:04;;;;;;;2.75;2.55;;;;;;;23.56;53.18;101596.69;5008642;28;98908;-72
2022/06/28 06:24:48;;;;;;;3.20;2.92;;;;;;;23.40;52.96;101584.31;5011506;28;100578;-72
2022/06/28 06:27:15;;;;;;;8.43;2.53;;;;;;;23.40;52.57;101586.16;5002497;28;96902;-71
2022/06/28 06:29:43;;;;;;;3.50;2.90;;;;;;;23.92;51.85;101591.13;5012657;28;97583;-72
2022/06/28 06:32:09;;;;;;;3.53;2.70;;;;;;;24.22;51.06;101587.88;5010043;28;98927;-72
2022/06/28 06:34:36;;;;;;;2.65;2.30;;;;;;;24.37;50.31;101588.50;5009883;28;97607;-71
2022/06/28 06:37:03;;;;;;;4.35;2.88;;;;;;;24.47;49.26;101597.59;5003872;28;97289;-71
2022/06/28 06:39:29;;;;;;;3.67;2.83;;;;;;;24.45;49.61;101591.44;5003467;28;97135;-70
2022/06/28 06:41:55;;;;;;;3.53;2.58;;;;;;;24.48;49.52;101605.56;5008048;28;101220;-70
2022/06/28 06:44:22;;;;;;;4.75;2.58;;;;;;;24.56;49.62;101604.94;4991267;28;101025;-71
2022/06/28 06:46:50;;;;;;;4.05;2.50;;;;;;;25.39;47.70;101605.28;5005806;28;97189;-70
2022/06/28 06:49:17;;;;;;;2.58;2.38;;;;;;;24.82;47.92;101614.50;5007537;28;96805;-71
2022/06/28 06:51:45;;;;;;;4.40;2.38;;;;;;;24.72;48.48;101616.25;5004377;28;98279;-70
2022/06/28 06:54:12;;;;;;;2.22;2.03;;;;;;;25.10;47.35;101625.78;5005505;28;98836;-70
2022/06/28 06:56:40;;;;;;;2.47;2.28;;;;;;;25.46;45.96;101632.69;5008796;28;97144;-71
2022/06/28 06:59:07;;;;;;;2.40;2.20;;;;;;;25.26;46.32;101642.47;5008176;28;96985;-71
2022/06/28 07:01:33;;;;;;;9.63;2.30;;;;;;;25.04;46.49;101634.41;5009088;28;99044;-70
2022/06/28 07:04:01;;;;;;;3.65;2.00;;;;;;;24.88;46.96;101646.44;5005765;28;99086;-70
2022/06/28 07:06:28;;;;;;;3.67;2.40;;;;;;;24.90;46.55;101647.22;5009098;28;96948;-71
2022/06/28 07:08:54;;;;;;;4.53;2.17;;;;;;;24.50;48.06;101654.94;5007958;28;96774;-71
2022/06/28 07:11:21;;;;;;;4.85;2.00;;;;;;;23.98;49.36;101662.66;5006590;28;99001;-70
2022/06/28 07:13:47;;;;;;;2.20;2.00;;;;;;;24.56;48.32;101664.38;5007843;28;97676;-70
2022/06/28 07:16:14;;;;;;;2.67;2.00;;;;;;;24.50;48.36;101664.88;4970270;28;1076943;-70
2022/06/28 07:18:42;;;;;;;6.60;1.98;;;;;;;24.67;48.22;101671.66;5012367;28;97362;-71
2022/06/28 07:21:09;;;;;;;4.18;2.40;;;;;;;24.64;47.78;101670.03;5010334;28;100443;-71
2022/06/28 07:23:36;;;;;;;2.22;1.95;;;;;;;24.65;47.96;101666.38;5004430;28;101861;-71
2022/06/28 07:26:02;;;;;;;2.85;1.90;;;;;;;24.45;48.43;101683.28;5012413;28;97169;-70
2022/06/28 07:28:29;;;;;;;3.15;2.08;;;;;;;25.04;46.75;101692.06;5007781;28;97634;-71
2022/06/28 07:30:55;;;;;;;2.80;1.63;;;;;;;25.51;45.42;101681.88;5012223;28;99288;-71
2022/06/28 07:33:22;;;;;;;3.53;3.05;;;;;;;25.53;45.41;101697.00;5010676;28;98050;-70
2022/06/28 07:35:48;;;;;;;4.60;2.95;;;;;;;25.41;44.71;101695.28;5012698;28;96660;-70
2022/06/28 07:38:16;;;;;;;6.38;1.60;;;;;;;25.99;43.98;101704.81;5010955;28;96894;-71
2022/06/28 07:40:42;;;;;;;1.80;1.70;;;;;;;25.87;44.43;101702.28;5005357;28;99230;-71
2022/06/28 07:43:09;;;;;;;2.13;1.50;;;;;;;26.06;43.66;101707.84;5008964;28;100060;-70
2022/06/28 07:45:36;;;;;;;1.63;1.30;;;;;;;26.24;43.34;101711.75;5011645;28;97357;-71
2022/06/28 07:48:03;;;;;;;1.70;1.60;;;;;;;26.46;42.65;101717.00;5006598;28;97694;-71
2022/06/28 07:53:15;;;;;;;3.53;1.40;;;;;;;26.51;42.56;101714.78;5009242;28;97108;-72
2022/06/28 07:55:42;;;;;;;1.67;1.33;;;;;;;26.68;42.07;101720.56;5005711;28;96759;-71
2022/06/28 07:58:08;;;;;;;2.60;1.58;;;;;;;27.00;41.36;101721.31;5007585;28;97254;-72
2022/06/28 08:00:35;;;;;;;2.25;1.40;;;;;;;27.05;41.24;101729.88;5008879;28;97952;-71
2022/06/28 08:03:01;;;;;;;1.85;1.20;;;;;;;27.35;40.32;101732.56;4997936;28;98854;-72
2022/06/28 08:05:28;;;;;;;4.93;1.05;;;;;;;27.28;40.21;101735.97;5011199;28;97741;-71
2022/06/28 08:07:54;;;;;;;1.98;1.83;;;;;;;27.26;40.31;101741.53;5010190;28;96926;-70
2022/06/28 08:10:24;;;;;;;4.20;1.35;;;;;;;27.32;40.40;101743.69;5008741;28;99208;-71
2022/06/28 08:12:51;;;;;;;5.07;2.25;;;;;;;27.95;38.80;101746.09;5001903;28;98849;-71
2022/06/28 08:15:17;;;;;;;1.67;1.08;;;;;;;28.04;38.58;101754.25;5006414;28;96806;-72
2022/06/28 08:17:44;;;;;;;2.28;1.15;;;;;;;26.66;40.77;101747.78;5008889;28;98113;-71
2022/06/28 08:20:11;;;;;;;1.17;1.08;;;;;;;26.51;41.45;101750.00;5006391;28;101014;-71
2022/06/28 08:22:41;;;;;;;1.45;1.30;;;;;;;26.28;42.09;101752.97;5008595;28;98138;-71
2022/06/28 08:25:08;;;;;;;3.70;1.05;;;;;;;26.30;42.35;101745.56;5007902;28;96765;-70
2022/06/28 08:27:36;;;;;;;1.85;1.20;;;;;;;27.11;40.52;101756.44;5008938;28;96914;-71
2022/06/28 08:30:03;;;;;;;3.70;1.27;;;;;;;27.07;39.92;101754.16;5005483;28;98910;-71
2022/06/28 08:32:30;;;;;;;3.30;0.98;;;;;;;26.90;40.63;101763.81;5005110;28;101179;-71
2022/06/28 08:34:56;;;;;;;1.20;0.80;;;;;;;26.42;41.15;101760.78;5007791;28;97302;-70
2022/06/28 08:37:23;;;;;;;1.23;0.88;;;;;;;27.45;39.77;101757.00;5007160;28;96803;-70
2022/06/28 08:39:49;;;;;;;1.75;0.80;;;;;;;27.59;39.45;101751.22;5008560;28;98968;-70
2022/06/28 08:42:20;;;;;;;2.67;0.90;;;;;;;27.73;38.48;101755.38;5007997;28;99319;-72
2022/06/28 08:44:48;;;;;;;1.13;0.90;;;;;;;27.43;38.67;101766.28;5008992;28;96853;-71
2022/06/28 08:47:15;;;;;;;2.30;1.00;;;;;;;27.96;37.62;101769.56;5009308;28;96995;-71
2022/06/28 08:49:51;;;;;;;4.20;0.95;;;;;;;28.21;37.28;101768.16;5009185;28;99192;-71
2022/06/28 08:52:18;;;;;;;5.07;1.15;;;;;;;28.09;37.57;101778.28;5008906;28;101541;-72
2022/06/28 08:54:47;;;;;;;0.75;0.75;;;;;;;28.04;37.10;101775.97;5003441;28;96834;-71
2022/06/28 08:57:13;;;;;;;1.05;1.02;;;;;;;28.32;37.07;101770.72;5009318;28;97658;-70
2022/06/28 08:59:40;;;;;;;2.92;1.15;;;;;;;28.67;36.23;101779.09;5008447;28;98938;-71
2022/06/28 09:02:09;;;;;;;4.30;1.08;;;;;;;27.62;37.74;101775.38;5007071;28;101665;-71
2022/06/28 09:04:35;;;;;;;2.15;1.80;;;;;;;28.38;37.56;101781.00;5001922;28;97355;-72
2022/06/28 09:07:02;;;;;;;2.47;1.52;;;;;;;28.39;37.32;101789.00;5008725;28;97006;-71
2022/06/28 09:09:28;;;;;;;2.35;1.20;;;;;;;28.50;36.41;101786.13;5005520;28;99212;-70
2022/06/28 09:11:54;;;;;;;1.13;0.77;;;;;;;28.71;36.43;101794.09;4998736;28;98814;-71
2022/06/28 09:14:25;;;;;;;0.80;0.80;;;;;;;29.06;35.29;101790.75;5007192;28;96802;-71
2022/06/28 09:16:52;;;;;;;0.75;0.70;;;;;;;29.27;35.39;101785.09;4999985;28;97075;-71
2022/06/28 09:19:33;;;;;;;5.25;0.93;;;;;;;28.69;35.87;101787.94;5006148;28;99128;-72
2022/06/28 09:22:01;;;;;;;3.08;0.90;;;;;;;29.03;35.22;101782.00;5010638;28;98998;-71
2022/06/28 09:24:27;;;;;;;4.63;1.50;;;;;;;29.12;35.05;101782.00;5003878;28;97193;-72
2022/06/28 09:26:55;;;;;;;0.63;0.50;;;;;;;29.08;34.62;101787.88;5009227;28;96959;-70
2022/06/28 09:29:21;;;;;;;1.88;0.63;;;;;;;29.28;34.48;101786.75;5003635;28;98196;-70
2022/06/28 09:31:48;;;;;;;0.63;0.50;;;;;;;29.07;34.43;101786.16;5008783;28;100958;-71
2022/06/28 09:34:14;;;;;;;3.33;0.80;;;;;;;29.05;35.04;101788.16;5005060;28;97302;-71
2022/06/28 09:36:55;;;;;;;1.98;1.10;;;;;;;28.79;35.12;101785.25;5007786;28;98276;-71
2022/06/28 09:39:22;;;;;;;0.60;0.60;;;;;;;28.62;35.00;101784.09;5004778;28;99358;-70
2022/06/28 09:41:50;;;;;;;1.48;0.60;;;;;;;28.73;34.96;101791.25;5006568;28;101800;-71
2022/06/28 09:44:17;;;;;;;0.68;0.60;;;;;;;28.58;34.97;101784.53;5003627;28;97185;-71
2022/06/28 09:46:45;;;;;;;1.48;0.63;;;;;;;28.48;35.41;101776.44;5006982;28;96794;-72
2022/06/28 09:49:13;;;;;;;1.52;0.57;;;;;;;28.48;35.17;101777.28;5003724;28;99405;-71
2022/06/28 09:51:40;;;;;;;2.55;0.60;;;;;;;28.44;35.45;101784.00;5009938;28;98760;-71
2022/06/28 09:54:10;;;;;;;2.17;0.60;;;;;;;28.44;35.67;101785.84;5002567;28;97525;-72
2022/06/28 09:56:40;;;;;;;1.92;1.30;;;;;;;28.84;34.14;101778.38;5000331;28;96851;-73
2022/06/28 09:59:07;;;;;;;2.72;1.67;;;;;;;29.43;33.35;101771.69;5004724;28;97613;-72
2022/06/28 10:01:35;;;;;;;0.57;0.50;;;;;;;29.53;33.20;101764.34;5006577;28;98386;-71
2022/06/28 10:04:02;;;;;;;2.25;0.70;;;;;;;29.60;32.82;101761.84;5003924;28;97068;-72
2022/06/28 10:06:29;;;;;;;1.77;0.50;;;;;;;29.44;32.56;101761.66;5005645;28;97016;-71
2022/06/28 10:08:56;;;;;;;0.65;0.40;;;;;;;29.25;32.93;101760.72;5006554;28;98977;-71
2022/06/28 10:11:23;;;;;;;0.80;0.70;;;;;;;29.09;33.53;101768.66;5013356;28;98806;-71
2022/06/28 10:16:47;;;;;;;1.23;1.13;;;;;;;29.21;33.15;101763.91;5008096;28;96897;-72
2022/06/28 10:19:17;;;;;;;6.47;0.93;;;;;;;29.03;33.35;101771.13;5010890;28;99219;-72
2022/06/28 10:21:46;;;;;;;0.60;0.50;;;;;;;28.70;33.65;101758.91;5013352;28;97785;-71
2022/06/28 10:24:13;;;;;;;3.42;1.00;;;;;;;28.73;33.64;101774.94;5011950;28;97120;-71
2022/06/28 10:26:45;;;;;;;4.93;1.05;;;;;;;28.19;34.20;101770.16;5012200;28;97233;-71
2022/06/28 10:29:12;;;;;;;4.57;2.75;;;;;;;28.14;33.53;101765.16;5012724;28;98978;-71
2022/06/28 10:31:41;;;;;;;1.15;1.05;;;;;;;29.45;32.01;101753.34;5012704;28;100493;-72
2022/06/28 10:34:10;;;;;;;3.15;1.40;;;;;;;29.59;31.76;101758.28;5011774;28;97380;-71
2022/06/28 10:36:48;;;;;;;1.40;0.80;;;;;;;29.94;30.95;101762.91;5012713;28;96883;-72
2022/06/28 10:39:20;;;;;;;2.47;0.60;;;;;;;29.91;31.34;101756.88;5010385;28;97821;-72
2022/06/28 10:41:49;;;;;;;5.07;0.70;;;;;;;29.78;31.76;101756.41;5012347;28;101816;-71
2022/06/28 10:44:18;;;;;;;1.70;0.70;;;;;;;29.96;31.58;101760.03;5010953;28;97373;-71
2022/06/28 10:46:50;;;;;;;1.70;0.70;;;;;;;30.09;31.58;101757.75;5012709;28;97041;-71
2022/06/28 10:49:17;;;;;;;3.20;0.70;;;;;;;30.06;31.37;101755.38;5012085;28;98938;-72
2022/06/28 10:52:10;;;;;;;0.80;0.80;;;;;;;30.00;30.83;101756.81;5012450;28;101736;-72
2022/06/28 10:54:38;;;;;;;1.48;0.80;;;;;;;29.44;32.31;101754.34;5011795;28;97498;-72
2022/06/28 11:00:02;;;;;;;1.15;0.50;;;;;;;28.69;32.74;101749.00;5072449;27;96780;-71
2022/06/28 11:02:46;;;;;;;0.68;0.43;;;;;;;28.72;33.05;101744.16;5070019;27;97554;-70
2022/06/28 11:05:12;;;;;;;1.88;0.50;;;;;;;28.92;32.23;101748.56;5068566;27;99450;-71
2022/06/28 11:07:41;;;;;;;0.90;0.50;;;;;;;29.34;32.20;101739.09;5068711;27;99073;-71
2022/06/28 11:10:12;;;;;;;0.93;0.50;;;;;;;29.74;31.38;101744.94;5068463;27;99041;-72
2022/06/28 11:12:41;;;;;;;0.95;0.65;;;;;;;29.86;30.68;101734.72;5068952;27;96923;-72
2022/06/28 11:15:11;;;;;;;1.65;0.60;;;;;;;29.82;30.84;101744.19;5067964;27;98899;-70
2022/06/28 11:17:40;;;;;;;0.80;0.40;;;;;;;29.68;31.23;101740.97;5065093;27;99103;-71
2022/06/28 11:20:09;;;;;;;2.10;0.88;;;;;;;28.90;31.14;101750.56;5067005;27;96869;-72
2022/06/28 11:22:40;;;;;;;0.50;0.50;;;;;;;28.87;30.94;101740.00;5069167;27;96791;-71
2022/06/28 11:25:09;;;;;;;0.75;0.40;;;;;;;29.18;30.82;101751.44;5068645;27;99016;-71
2022/06/28 11:27:34;;;;;;;1.27;0.55;;;;;;;30.07;30.20;101748.88;5068775;27;98996;-70
2022/06/28 11:30:06;;;;;;;1.70;0.30;;;;;;;30.01;28.33;101744.91;5069537;27;96745;-72
2022/06/28 11:32:36;;;;;;;1.25;0.60;;;;;;;29.90;27.86;101741.53;5066585;27;97117;-71
2022/06/28 11:35:04;;;;;;;2.00;0.60;;;;;;;30.26;27.78;101745.97;5068813;27;99975;-72
2022/06/28 11:37:34;;;;;;;1.27;0.80;;;;;;;30.24;28.83;101748.03;5068777;27;99351;-71
2022/06/28 11:40:01;;;;;;;3.63;0.60;;;;;;;30.37;29.10;101747.59;5070322;27;97244;-73